sensor_id;sensor_type;location;lat;lon;timestamp;pressure;altitude;pressure_sealevel;temperature;humidity
58775;BME280;44545;47.480;19.024;2023-03-20T04:11:22;100136.63;;;6.97;66.57
58775;BME280;44545;47.480;19.024;2023-03-20T04:14:30;100136.63;;;6.97;66.57
58775;BME280;44545;47.480;19.024;2023-03-20T04:17:32;100144.66;;;6.35;68.24
58775;BME280;44545;47.480;19.024;2023-03-20T04:20:35;100147.34;;;6.37;68.24
58775;BME280;44545;47.480;19.024;2023-03-20T04:23:39;100148.34;;;6.39;68.37
58775;BME280;44545;47.480;19.024;2023-03-20T04:26:41;100146.34;;;6.35;67.90
58775;BME280;44545;47.480;19.024;2023-03-20T04:29:44;100155.94;;;6.36;68.02
58775;BME280;44545;47.480;19.024;2023-03-20T04:32:47;100155.63;;;6.31;67.65
58775;BME280;44545;47.480;19.024;2023-03-20T04:35:50;100154.72;;;6.31;67.93
58775;BME280;44545;47.480;19.024;2023-03-20T04:38:53;100152.41;;;6.35;67.61
58775;BME280;44545;47.480;19.024;2023-03-20T04:41:58;100155.69;;;6.33;67.57
58775;BME280;44545;47.480;19.024;2023-03-20T04:45:02;100156.69;;;6.35;67.69
58775;BME280;44545;47.480;19.024;2023-03-20T04:48:05;100155.50;;;6.29;67.70
58775;BME280;44545;47.480;19.024;2023-03-20T04:51:08;100157.78;;;6.25;67.88
58775;BME280;44545;47.480;19.024;2023-03-20T04:54:11;100150.13;;;6.26;67.69
58775;BME280;44545;47.480;19.024;2023-03-20T04:57:13;100145.44;;;6.21;68.30
58775;BME280;44545;47.480;19.024;2023-03-20T05:00:16;100153.50;;;6.25;68.41
58775;BME280;44545;47.480;19.024;2023-03-20T05:03:19;100164.38;;;6.33;68.06
58775;BME280;44545;47.480;19.024;2023-03-20T05:06:26;100156.50;;;6.32;67.67
58775;BME280;44545;47.480;19.024;2023-03-20T05:09:29;100159.50;;;6.38;67.31
58775;BME280;44545;47.480;19.024;2023-03-20T05:12:34;100158.91;;;6.42;67.01
58775;BME280;44545;47.480;19.024;2023-03-20T05:15:38;100157.72;;;6.50;66.45
58775;BME280;44545;47.480;19.024;2023-03-20T05:18:41;100157.16;;;6.54;66.54
58775;BME280;44545;47.480;19.024;2023-03-20T05:21:44;100168.31;;;6.66;66.26
58775;BME280;44545;47.480;19.024;2023-03-20T05:24:46;100175.72;;;6.73;65.76
58775;BME280;44545;47.480;19.024;2023-03-20T05:27:49;100176.59;;;6.87;65.32
58775;BME280;44545;47.480;19.024;2023-03-20T05:30:54;100179.31;;;7.02;64.48
58775;BME280;44545;47.480;19.024;2023-03-20T05:33:57;100180.28;;;7.18;64.02
58775;BME280;44545;47.480;19.024;2023-03-20T05:36:59;100182.97;;;7.32;63.62
58775;BME280;44545;47.480;19.024;2023-03-20T05:40:03;100178.75;;;7.48;62.72
58775;BME280;44545;47.480;19.024;2023-03-20T05:43:07;100178.00;;;7.64;62.13
58775;BME280;44545;47.480;19.024;2023-03-20T05:46:09;100185.16;;;7.81;61.83
58775;BME280;44545;47.480;19.024;2023-03-20T05:49:12;100180.19;;;7.99;62.11
58775;BME280;44545;47.480;19.024;2023-03-20T05:52:15;100170.44;;;8.10;61.75
58775;BME280;44545;47.480;19.024;2023-03-20T05:55:18;100173.81;;;8.37;60.94
58775;BME280;44545;47.480;19.024;2023-03-20T05:58:21;100186.19;;;8.56;60.09
58775;BME280;44545;47.480;19.024;2023-03-20T06:01:27;100181.72;;;8.98;59.57
58775;BME280;44545;47.480;19.024;2023-03-20T06:04:31;100183.37;;;9.27;58.02
58775;BME280;44545;47.480;19.024;2023-03-20T06:07:34;100188.09;;;9.82;56.72
58775;BME280;44545;47.480;19.024;2023-03-20T06:10:37;100189.75;;;10.45;54.88
58775;BME280;44545;47.480;19.024;2023-03-20T06:13:43;100190.75;;;11.17;52.51
58775;BME280;44545;47.480;19.024;2023-03-20T06:16:46;100188.91;;;11.70;51.01
58775;BME280;44545;47.480;19.024;2023-03-20T06:19:49;100177.34;;;11.84;48.81
58775;BME280;44545;47.480;19.024;2023-03-20T06:22:51;100188.97;;;12.69;47.01
58775;BME280;44545;47.480;19.024;2023-03-20T06:25:54;100190.66;;;13.30;44.15
58775;BME280;44545;47.480;19.024;2023-03-20T06:28:57;100188.84;;;13.51;44.07
58775;BME280;44545;47.480;19.024;2023-03-20T06:31:59;100189.31;;;14.08;43.09
58775;BME280;44545;47.480;19.024;2023-03-20T06:35:02;100176.34;;;14.87;40.81
58775;BME280;44545;47.480;19.024;2023-03-20T06:38:07;100175.50;;;15.42;38.71
58775;BME280;44545;47.480;19.024;2023-03-20T06:41:09;100173.72;;;16.30;36.82
58775;BME280;44545;47.480;19.024;2023-03-20T06:44:22;100182.41;;;16.91;34.29
58775;BME280;44545;47.480;19.024;2023-03-20T06:47:25;100183.72;;;16.42;34.86
58775;BME280;44545;47.480;19.024;2023-03-20T06:50:28;100181.78;;;17.01;33.73
58775;BME280;44545;47.480;19.024;2023-03-20T06:53:30;100181.78;;;17.38;34.15
58775;BME280;44545;47.480;19.024;2023-03-20T06:56:33;100182.56;;;17.71;32.76
58775;BME280;44545;47.480;19.024;2023-03-20T06:59:35;100179.78;;;18.05;31.83
58775;BME280;44545;47.480;19.024;2023-03-20T07:02:38;100182.00;;;17.47;32.50
58775;BME280;44545;47.480;19.024;2023-03-20T07:05:42;100190.06;;;17.54;31.76
58775;BME280;44545;47.480;19.024;2023-03-20T07:08:45;100184.22;;;18.51;30.38
58775;BME280;44545;47.480;19.024;2023-03-20T07:11:47;100184.22;;;18.06;31.04
58775;BME280;44545;47.480;19.024;2023-03-20T07:14:50;100177.38;;;18.61;29.92
58775;BME280;44545;47.480;19.024;2023-03-20T07:17:53;100180.75;;;18.08;30.63
58775;BME280;44545;47.480;19.024;2023-03-20T07:21:00;100181.00;;;18.22;30.34
58775;BME280;44545;47.480;19.024;2023-03-20T07:24:05;100190.72;;;18.70;29.84
58775;BME280;44545;47.480;19.024;2023-03-20T07:27:08;100191.41;;;18.13;30.55
58775;BME280;44545;47.480;19.024;2023-03-20T07:30:11;100186.41;;;18.74;30.01
58775;BME280;44545;47.480;19.024;2023-03-20T07:33:14;100185.41;;;18.22;29.44
58775;BME280;44545;47.480;19.024;2023-03-20T07:36:17;100186.81;;;18.04;30.32
58775;BME280;44545;47.480;19.024;2023-03-20T07:39:20;100186.84;;;16.92;31.53
58775;BME280;44545;47.480;19.024;2023-03-20T07:42:24;100183.75;;;17.84;30.28
58775;BME280;44545;47.480;19.024;2023-03-20T07:45:30;100197.72;;;17.42;30.51
58775;BME280;44545;47.480;19.024;2023-03-20T07:48:34;100198.09;;;17.59;30.07
58775;BME280;44545;47.480;19.024;2023-03-20T07:51:37;100189.16;;;17.90;30.20
58775;BME280;44545;47.480;19.024;2023-03-20T07:54:39;100187.22;;;18.24;30.28
58775;BME280;44545;47.480;19.024;2023-03-20T07:57:41;100194.84;;;17.71;30.14
58775;BME280;44545;47.480;19.024;2023-03-20T08:00:46;100191.91;;;18.40;28.87
58775;BME280;44545;47.480;19.024;2023-03-20T08:03:48;100191.81;;;18.34;29.54
58775;BME280;44545;47.480;19.024;2023-03-20T08:06:50;100195.44;;;18.39;29.30
58775;BME280;44545;47.480;19.024;2023-03-20T08:09:53;100199.38;;;18.16;29.33
58775;BME280;44545;47.480;19.024;2023-03-20T08:12:55;100202.00;;;18.16;29.92
58775;BME280;44545;47.480;19.024;2023-03-20T08:15:58;100200.06;;;18.97;28.67
58775;BME280;44545;47.480;19.024;2023-03-20T08:19:00;100207.91;;;19.47;27.46
58775;BME280;44545;47.480;19.024;2023-03-20T08:22:04;100210.81;;;19.64;26.54
58775;BME280;44545;47.480;19.024;2023-03-20T08:25:07;100209.41;;;19.31;27.38
58775;BME280;44545;47.480;19.024;2023-03-20T08:28:10;100205.56;;;19.09;28.46
58775;BME280;44545;47.480;19.024;2023-03-20T08:31:13;100208.12;;;19.04;29.16
58775;BME280;44545;47.480;19.024;2023-03-20T08:34:16;100212.41;;;19.54;26.92
58775;BME280;44545;47.480;19.024;2023-03-20T08:37:18;100204.94;;;19.85;27.38
58775;BME280;44545;47.480;19.024;2023-03-20T08:40:20;100203.13;;;19.78;27.45
58775;BME280;44545;47.480;19.024;2023-03-20T08:43:23;100210.72;;;19.59;27.32
58775;BME280;44545;47.480;19.024;2023-03-20T08:46:25;100211.25;;;18.82;28.58
58775;BME280;44545;47.480;19.024;2023-03-20T08:49:28;100213.69;;;19.79;27.73
58775;BME280;44545;47.480;19.024;2023-03-20T08:52:30;100215.31;;;20.35;27.41
58775;BME280;44545;47.480;19.024;2023-03-20T08:55:32;100216.06;;;20.25;26.89
58775;BME280;44545;47.480;19.024;2023-03-20T08:58:35;100220.22;;;20.03;27.67
58775;BME280;44545;47.480;19.024;2023-03-20T09:01:38;100218.31;;;20.66;26.96
58775;BME280;44545;47.480;19.024;2023-03-20T09:04:50;100216.87;;;20.95;26.16
58775;BME280;44545;47.480;19.024;2023-03-20T09:07:53;100225.59;;;20.85;25.98
58775;BME280;44545;47.480;19.024;2023-03-20T09:10:55;100227.19;;;21.67;24.79
58775;BME280;44545;47.480;19.024;2023-03-20T09:13:58;100222.25;;;21.05;25.45
58775;BME280;44545;47.480;19.024;2023-03-20T09:17:00;100223.25;;;21.17;25.18
58775;BME280;44545;47.480;19.024;2023-03-20T09:20:03;100223.78;;;20.06;26.92
58775;BME280;44545;47.480;19.024;2023-03-20T09:23:06;100227.84;;;20.50;26.01
58775;BME280;44545;47.480;19.024;2023-03-20T09:26:09;100218.97;;;20.46;26.01
58775;BME280;44545;47.480;19.024;2023-03-20T09:29:11;100223.00;;;20.13;27.06
58775;BME280;44545;47.480;19.024;2023-03-20T09:32:14;100225.03;;;21.17;25.32
58775;BME280;44545;47.480;19.024;2023-03-20T09:35:17;100228.09;;;21.71;25.46
58775;BME280;44545;47.480;19.024;2023-03-20T09:38:19;100217.72;;;22.12;24.19
58775;BME280;44545;47.480;19.024;2023-03-20T09:41:24;100217.81;;;22.32;23.16
58775;BME280;44545;47.480;19.024;2023-03-20T09:47:50;100213.13;;;21.80;24.19
58775;BME280;44545;47.480;19.024;2023-03-20T09:51:03;100202.78;;;22.36;24.22
58775;BME280;44545;47.480;19.024;2023-03-20T09:54:36;100212.69;;;23.32;23.16
58775;BME280;44545;47.480;19.024;2023-03-20T09:57:57;100206.50;;;23.30;23.81
58775;BME280;44545;47.480;19.024;2023-03-20T10:01:07;100207.16;;;24.30;22.42
58775;BME280;44545;47.480;19.024;2023-03-20T10:04:14;100216.87;;;24.48;21.24
58775;BME280;44545;47.480;19.024;2023-03-20T10:07:17;100208.16;;;24.06;21.90
58775;BME280;44545;47.480;19.024;2023-03-20T10:10:29;100210.94;;;23.17;23.55
58775;BME280;44545;47.480;19.024;2023-03-20T10:17:06;100203.69;;;24.05;22.22
58775;BME280;44545;47.480;19.024;2023-03-20T10:20:34;100201.78;;;24.44;22.24
58775;BME280;44545;47.480;19.024;2023-03-20T10:23:42;100207.69;;;24.94;21.17
58775;BME280;44545;47.480;19.024;2023-03-20T10:26:50;100210.63;;;24.51;21.95
58775;BME280;44545;47.480;19.024;2023-03-20T10:43:20;100185.31;;;26.06;20.74
58775;BME280;44545;47.480;19.024;2023-03-20T10:46:30;100188.38;;;26.46;20.02
58775;BME280;44545;47.480;19.024;2023-03-20T10:49:42;100187.41;;;25.76;21.40
58775;BME280;44545;47.480;19.024;2023-03-20T10:52:48;100190.72;;;25.07;21.37
58775;BME280;44545;47.480;19.024;2023-03-20T10:55:56;100181.25;;;25.69;20.87
58775;BME280;44545;47.480;19.024;2023-03-20T10:59:06;100181.19;;;24.71;22.19
58775;BME280;44545;47.480;19.024;2023-03-20T11:02:13;100181.44;;;24.26;22.72
58775;BME280;44545;47.480;19.024;2023-03-20T11:08:35;100177.16;;;23.88;22.58
58775;BME280;44545;47.480;19.024;2023-03-20T11:11:38;100164.50;;;24.36;22.34
58775;BME280;44545;47.480;19.024;2023-03-20T11:14:45;100162.78;;;24.21;22.68
58775;BME280;44545;47.480;19.024;2023-03-20T11:17:59;100157.56;;;24.01;22.31
58775;BME280;44545;47.480;19.024;2023-03-20T11:21:02;100153.25;;;22.65;24.96
58775;BME280;44545;47.480;19.024;2023-03-20T11:24:55;100147.94;;;23.44;23.26
58775;BME280;44545;47.480;19.024;2023-03-20T11:27:31;100151.50;;;23.36;25.09
58775;BME280;44545;47.480;19.024;2023-03-20T11:30:39;100140.81;;;23.58;23.70
58775;BME280;44545;47.480;19.024;2023-03-20T11:34:08;100146.19;;;23.21;23.87
58775;BME280;44545;47.480;19.024;2023-03-20T11:37:42;100139.97;;;22.90;24.52
58775;BME280;44545;47.480;19.024;2023-03-20T11:40:45;100141.66;;;22.36;25.33
58775;BME280;44545;47.480;19.024;2023-03-20T11:43:53;100137.28;;;22.58;24.90
58775;BME280;44545;47.480;19.024;2023-03-20T11:47:10;100132.03;;;20.95;26.59
58775;BME280;44545;47.480;19.024;2023-03-20T11:50:44;100144.19;;;20.69;28.37
58775;BME280;44545;47.480;19.024;2023-03-20T11:56:57;100147.19;;;21.10;27.92
58775;BME280;44545;47.480;19.024;2023-03-20T12:00:14;100140.12;;;21.12;27.66
58775;BME280;44545;47.480;19.024;2023-03-20T12:03:49;100136.56;;;21.09;28.04
58775;BME280;44545;47.480;19.024;2023-03-20T12:07:02;100136.03;;;21.59;26.21
58775;BME280;44545;47.480;19.024;2023-03-20T12:10:10;100137.47;;;21.14;27.02
58775;BME280;44545;47.480;19.024;2023-03-20T12:13:19;100130.88;;;20.61;27.52
58775;BME280;44545;47.480;19.024;2023-03-20T12:16:24;100129.75;;;20.42;27.85
58775;BME280;44545;47.480;19.024;2023-03-20T12:19:29;100127.97;;;20.43;28.29
58775;BME280;44545;47.480;19.024;2023-03-20T12:22:41;100129.16;;;19.90;28.37
58775;BME280;44545;47.480;19.024;2023-03-20T12:29:26;100124.53;;;19.72;29.78
58775;BME280;44545;47.480;19.024;2023-03-20T12:32:39;100116.66;;;19.77;29.04
58775;BME280;44545;47.480;19.024;2023-03-20T12:35:46;100116.00;;;19.98;28.64
58775;BME280;44545;47.480;19.024;2023-03-20T12:38:50;100118.81;;;20.08;28.74
58775;BME280;44545;47.480;19.024;2023-03-20T12:45:49;100116.03;;;19.99;28.79
58775;BME280;44545;47.480;19.024;2023-03-20T12:52:14;100115.47;;;19.55;30.90
58775;BME280;44545;47.480;19.024;2023-03-20T12:55:32;100123.31;;;18.91;30.07
58775;BME280;44545;47.480;19.024;2023-03-20T13:05:39;100104.44;;;18.69;31.11
58775;BME280;44545;47.480;19.024;2023-03-20T13:19:02;100089.72;;;18.83;32.19
58775;BME280;44545;47.480;19.024;2023-03-20T13:22:16;100084.34;;;19.37;30.77
58775;BME280;44545;47.480;19.024;2023-03-20T13:28:53;100085.94;;;19.24;32.48
58775;BME280;44545;47.480;19.024;2023-03-20T13:35:29;100081.31;;;19.72;32.04
58775;BME280;44545;47.480;19.024;2023-03-20T13:38:42;100080.94;;;19.45;31.06
58775;BME280;44545;47.480;19.024;2023-03-20T13:41:48;100078.06;;;18.72;31.96
58775;BME280;44545;47.480;19.024;2023-03-20T13:44:52;100072.22;;;18.90;32.60
58775;BME280;44545;47.480;19.024;2023-03-20T13:51:25;100067.78;;;18.88;32.68
58775;BME280;44545;47.480;19.024;2023-03-20T14:01:43;100068.53;;;18.30;33.17
58775;BME280;44545;47.480;19.024;2023-03-20T14:04:50;100070.59;;;17.98;34.02
58775;BME280;44545;47.480;19.024;2023-03-20T14:07:56;100063.25;;;18.30;34.07
58775;BME280;44545;47.480;19.024;2023-03-20T14:17:29;100067.97;;;18.48;34.65
58775;BME280;44545;47.480;19.024;2023-03-20T14:20:34;100068.75;;;18.41;33.83
58775;BME280;44545;47.480;19.024;2023-03-20T14:23:42;100067.59;;;18.27;34.75
58775;BME280;44545;47.480;19.024;2023-03-20T14:26:49;100069.38;;;18.26;34.99
58775;BME280;44545;47.480;19.024;2023-03-20T14:29:52;100059.97;;;17.95;36.21
58775;BME280;44545;47.480;19.024;2023-03-20T14:36:29;100059.81;;;17.87;35.83
58775;BME280;44545;47.480;19.024;2023-03-20T14:46:16;100062.06;;;17.67;36.48
58775;BME280;44545;47.480;19.024;2023-03-20T14:56:15;100057.75;;;17.72;36.75
58775;BME280;44545;47.480;19.024;2023-03-20T14:59:19;100052.56;;;17.77;37.02
58775;BME280;44545;47.480;19.024;2023-03-20T15:02:29;100052.69;;;17.82;37.24
58775;BME280;44545;47.480;19.024;2023-03-20T15:05:37;100046.38;;;17.75;37.03
58775;BME280;44545;47.480;19.024;2023-03-20T15:08:46;100046.47;;;17.80;36.76
58775;BME280;44545;47.480;19.024;2023-03-20T15:11:51;100044.53;;;17.71;37.48
58775;BME280;44545;47.480;19.024;2023-03-20T15:14:56;100043.19;;;17.49;37.63
58775;BME280;44545;47.480;19.024;2023-03-20T15:18:05;100051.22;;;17.14;38.38
58775;BME280;44545;47.480;19.024;2023-03-20T15:21:16;100045.72;;;17.02;38.93
58775;BME280;44545;47.480;19.024;2023-03-20T15:24:23;100048.34;;;17.03;39.26
58775;BME280;44545;47.480;19.024;2023-03-20T15:27:26;100042.69;;;16.85;39.46
58775;BME280;44545;47.480;19.024;2023-03-20T15:30:33;100050.69;;;16.89;39.64
58775;BME280;44545;47.480;19.024;2023-03-20T15:33:39;100048.81;;;16.84;39.84
58775;BME280;44545;47.480;19.024;2023-03-20T15:36:43;100042.72;;;16.86;39.99
58775;BME280;44545;47.480;19.024;2023-03-20T15:39:49;100051.56;;;16.90;39.87
58775;BME280;44545;47.480;19.024;2023-03-20T15:42:59;100050.81;;;16.96;39.92
58775;BME280;44545;47.480;19.024;2023-03-20T15:46:02;100041.91;;;16.90;41.14
58775;BME280;44545;47.480;19.024;2023-03-20T15:49:20;100047.88;;;16.82;41.08
58775;BME280;44545;47.480;19.024;2023-03-20T15:52:29;100047.72;;;16.77;40.86
58775;BME280;44545;47.480;19.024;2023-03-20T15:55:33;100040.66;;;16.75;41.28
58775;BME280;44545;47.480;19.024;2023-03-20T15:58:35;100032.69;;;16.72;40.88
58775;BME280;44545;47.480;19.024;2023-03-20T16:01:38;100036.41;;;16.80;41.88
58775;BME280;44545;47.480;19.024;2023-03-20T16:04:47;100046.09;;;16.81;41.45
58775;BME280;44545;47.480;19.024;2023-03-20T16:07:52;100045.09;;;16.77;41.67
58775;BME280;44545;47.480;19.024;2023-03-20T16:11:11;100050.25;;;16.73;41.68
58775;BME280;44545;47.480;19.024;2023-03-20T16:14:34;100043.09;;;16.67;42.17
58775;BME280;44545;47.480;19.024;2023-03-20T16:17:37;100050.25;;;16.36;42.91
58775;BME280;44545;47.480;19.024;2023-03-20T16:20:45;100053.59;;;16.31;43.13
